createdAt,value
2019-04-19T00:02:46.093Z,12.87
2019-04-19T00:05:52.513Z,12.85
2019-04-19T00:09:01.542Z,12.79
2019-04-19T00:11:40.252Z,12.57
2019-04-19T00:14:16.863Z,12.44
2019-04-19T00:17:12.312Z,12.30
2019-04-19T00:20:21.906Z,12.27
2019-04-19T00:23:03.019Z,12.32
2019-04-19T00:25:38.583Z,12.16
2019-04-19T00:28:38.488Z,12.06
2019-04-19T00:31:30.811Z,11.91
2019-04-19T00:34:10.306Z,11.79
2019-04-19T00:36:59.829Z,11.66
2019-04-19T00:43:26.324Z,11.33
2019-04-19T00:46:35.333Z,11.24
2019-04-19T00:49:15.944Z,11.15
2019-04-19T00:52:12.367Z,11.10
2019-04-19T00:54:59.148Z,11.13
2019-04-19T00:57:48.269Z,11.10
2019-04-19T01:00:35.075Z,11.26
2019-04-19T01:03:28.711Z,11.17
2019-04-19T01:06:15.415Z,11.11
2019-04-19T01:09:20.151Z,11.14
2019-04-19T01:12:06.885Z,11.13
2019-04-19T01:14:45.978Z,11.04
2019-04-19T01:17:45.992Z,10.97
2019-04-19T01:23:50.771Z,10.86
2019-04-19T01:26:42.933Z,10.79
2019-04-19T01:29:31.339Z,10.67
2019-04-19T01:32:19.859Z,10.70
2019-04-19T01:38:23.184Z,10.58
2019-04-19T01:41:32.256Z,10.51
2019-04-19T01:50:13.252Z,10.36
2019-04-19T01:53:09.774Z,10.27
2019-04-19T01:55:43.333Z,10.24
2019-04-19T01:58:31.420Z,10.19
2019-04-19T02:01:25.949Z,10.20
2019-04-19T02:04:20.817Z,10.12
2019-04-19T02:07:05.121Z,10.10
2019-04-19T02:10:06.122Z,10.05
2019-04-19T02:12:52.726Z,10.04
2019-04-19T02:15:35.863Z,10.02
2019-04-19T02:18:24.159Z,9.97
2019-04-19T02:21:09.011Z,9.95
2019-04-19T02:24:00.668Z,9.91
2019-04-19T02:26:53.936Z,9.86
2019-04-19T02:29:43.682Z,9.84
2019-04-19T02:32:48.908Z,9.81
2019-04-19T02:35:46.379Z,9.75
2019-04-19T02:38:36.669Z,9.72
2019-04-19T02:41:32.023Z,9.66
2019-04-19T02:44:18.136Z,9.64
2019-04-19T02:52:52.768Z,9.45
2019-04-19T03:02:14.968Z,9.25
2019-04-19T03:07:08.805Z,9.23
2019-04-19T03:09:56.269Z,9.18
2019-04-19T03:13:04.531Z,9.16
2019-04-19T03:15:53.077Z,9.13
2019-04-19T03:18:34.557Z,9.12
2019-04-19T03:21:25.281Z,9.10
2019-04-19T03:24:14.143Z,9.08
2019-04-19T03:27:02.276Z,9.04
2019-04-19T03:29:46.593Z,9.01
2019-04-19T03:33:07.251Z,8.98
2019-04-19T03:35:14.428Z,8.96
2019-04-19T03:38:10.597Z,8.93
2019-04-19T03:44:25.359Z,8.88
2019-04-19T03:47:22.596Z,8.84
2019-04-19T03:50:15.572Z,8.81
2019-04-19T03:53:01.038Z,8.81
2019-04-19T03:56:02.964Z,8.77
2019-04-19T03:58:27.579Z,8.70
2019-04-19T04:01:17.052Z,8.64
2019-04-19T04:04:13.532Z,8.59
2019-04-19T04:06:59.205Z,8.51
2019-04-19T04:10:08.099Z,8.46
2019-04-19T04:13:28.690Z,8.44
2019-04-19T04:16:11.582Z,8.35
2019-04-19T04:18:53.477Z,8.31
2019-04-19T04:21:47.811Z,8.26
2019-04-19T04:24:39.921Z,8.22
2019-04-19T04:27:35.989Z,8.20
2019-04-19T04:30:25.155Z,8.16
2019-04-19T04:33:21.575Z,8.15
2019-04-19T04:36:19.122Z,8.12
2019-04-19T04:38:48.256Z,8.10
2019-04-19T04:41:37.582Z,8.08
2019-04-19T04:44:53.548Z,8.08
2019-04-19T04:56:31.831Z,8.06
2019-04-19T04:59:19.979Z,8.05
2019-04-19T05:02:16.730Z,8.07
2019-04-19T05:05:15.214Z,8.12
2019-04-19T05:08:10.229Z,8.13
2019-04-19T05:10:56.686Z,8.14
2019-04-19T05:13:52.403Z,8.15
2019-04-19T05:19:20.170Z,8.22
2019-04-19T05:22:11.628Z,8.26
2019-04-19T05:25:12.253Z,8.28
2019-04-19T05:27:56.692Z,8.38
2019-04-19T05:30:39.480Z,8.46
2019-04-19T05:33:28.729Z,8.57
2019-04-19T05:39:54.321Z,8.87
2019-04-19T05:42:56.720Z,9.10
2019-04-19T05:45:57.986Z,9.25
2019-04-19T05:48:36.061Z,9.48
2019-04-19T05:51:41.404Z,9.64
2019-04-19T05:54:10.205Z,9.82
2019-04-19T05:57:16.535Z,10.00
2019-04-19T05:59:56.890Z,10.22
2019-04-19T06:02:52.277Z,10.40
2019-04-19T06:05:57.964Z,10.57
2019-04-19T06:08:26.545Z,10.81
2019-04-19T06:11:10.778Z,11.05
2019-04-19T06:14:27.774Z,11.35
2019-04-19T06:17:22.951Z,11.57
2019-04-19T06:23:07.451Z,12.26
2019-04-19T06:26:20.079Z,12.54
2019-04-19T06:31:47.003Z,13.20
2019-04-19T06:34:34.867Z,13.64
2019-04-19T06:37:10.240Z,14.06
2019-04-19T06:40:04.907Z,14.60
2019-04-19T06:42:54.301Z,15.57
2019-04-19T06:45:52.998Z,15.79
2019-04-19T06:48:31.389Z,16.34
2019-04-19T06:51:26.678Z,16.85
2019-04-19T06:54:09.465Z,17.63
2019-04-19T06:57:09.387Z,18.20
2019-04-19T07:00:04.474Z,19.00
2019-04-19T07:02:39.289Z,19.55
2019-04-19T07:05:40.854Z,21.00
2019-04-19T07:11:33.184Z,21.97
2019-04-19T07:14:07.450Z,22.88
2019-04-19T07:17:05.590Z,22.69
2019-04-19T07:19:53.904Z,23.10
2019-04-19T07:22:41.355Z,25.15
2019-04-19T07:25:42.711Z,25.22
2019-04-19T07:28:14.858Z,25.18
2019-04-19T07:31:01.453Z,26.96
2019-04-19T07:33:57.219Z,26.22
2019-04-19T07:36:59.460Z,26.05
2019-04-19T07:39:57.155Z,27.05
2019-04-19T07:42:39.783Z,27.31
2019-04-19T07:45:52.731Z,26.92
2019-04-19T07:51:34.215Z,28.36
2019-04-19T07:54:25.241Z,26.72
2019-04-19T07:57:48.381Z,27.19
2019-04-19T08:00:40.705Z,28.45
2019-04-19T08:03:25.772Z,28.05
2019-04-19T08:06:08.376Z,26.78
2019-04-19T08:11:58.874Z,27.59
2019-04-19T08:28:37.536Z,29.87
2019-04-19T08:31:19.525Z,30.57
2019-04-19T08:34:13.344Z,29.08
2019-04-19T08:37:03.705Z,29.51
2019-04-19T08:40:15.407Z,29.47
2019-04-19T08:49:23.815Z,30.87
2019-04-19T08:52:29.320Z,29.64
2019-04-19T08:55:35.400Z,30.70
2019-04-19T08:58:12.942Z,31.33
2019-04-19T09:01:19.814Z,30.19
2019-04-19T09:04:10.454Z,30.52
2019-04-19T09:09:50.765Z,31.48
2019-04-19T09:12:37.346Z,31.47
2019-04-19T09:18:48.395Z,30.89
2019-04-19T09:21:21.554Z,31.32
2019-04-19T09:24:04.794Z,31.66
2019-04-19T09:27:07.891Z,31.12
2019-04-19T09:29:59.026Z,31.05
2019-04-19T09:32:33.910Z,30.29
2019-04-19T09:38:31.012Z,31.83
2019-04-19T09:41:19.735Z,32.61
2019-04-19T09:44:09.135Z,31.55
2019-04-19T09:46:49.301Z,31.99
2019-04-19T09:49:54.334Z,31.11
2019-04-19T09:52:49.778Z,30.15
2019-04-19T09:55:43.206Z,29.98
2019-04-19T09:58:46.707Z,30.25
2019-04-19T10:01:32.125Z,31.23
2019-04-19T10:04:12.950Z,31.33
2019-04-19T10:07:02.926Z,32.17
2019-04-19T10:09:56.640Z,31.22
2019-04-19T10:12:43.448Z,30.92
2019-04-19T10:18:22.863Z,30.73
2019-04-19T10:21:33.647Z,31.22
2019-04-19T10:24:22.706Z,31.31
2019-04-19T10:27:31.326Z,31.68
2019-04-19T10:30:40.570Z,30.79
2019-04-19T10:33:38.416Z,31.03
2019-04-19T10:36:20.716Z,30.71
2019-04-19T10:39:29.987Z,31.42
2019-04-19T10:42:19.392Z,32.64
2019-04-19T10:48:36.971Z,30.76
2019-04-19T10:54:22.363Z,31.12
2019-04-19T10:57:33.453Z,31.31
2019-04-19T11:00:22.635Z,31.10
2019-04-19T11:03:12.729Z,30.74
2019-04-19T11:06:02.863Z,31.96
2019-04-19T11:08:52.754Z,30.53
2019-04-19T11:11:41.676Z,31.08
2019-04-19T11:14:30.528Z,31.29
2019-04-19T11:17:19.969Z,30.99
2019-04-19T11:20:16.915Z,31.70
2019-04-19T11:22:53.604Z,31.04
2019-04-19T11:25:45.779Z,30.78
2019-04-19T11:28:34.185Z,31.07
2019-04-19T11:31:43.688Z,31.40
2019-04-19T11:37:42.741Z,30.34
2019-04-19T11:40:31.588Z,30.94
2019-04-19T11:43:21.790Z,31.62
2019-04-19T11:46:11.794Z,31.63
2019-04-19T11:49:01.769Z,31.41
2019-04-19T11:51:53.172Z,30.76
2019-04-19T11:54:42.689Z,31.16
2019-04-19T11:57:16.578Z,30.99
2019-04-19T11:59:53.115Z,30.69
2019-04-19T12:02:33.478Z,30.46
2019-04-19T12:05:12.776Z,30.45
2019-04-19T12:07:34.806Z,30.27
2019-04-19T12:10:06.782Z,31.14
2019-04-19T12:12:37.262Z,30.95
2019-04-19T12:15:08.745Z,30.64
2019-04-19T12:17:38.272Z,30.78
2019-04-19T12:20:09.607Z,30.66
2019-04-19T12:22:39.913Z,30.27
2019-04-19T12:25:10.054Z,29.79
2019-04-19T12:27:39.602Z,30.57
2019-04-19T12:30:09.457Z,30.33
2019-04-19T12:32:41.513Z,30.12
2019-04-19T12:35:11.221Z,30.14
2019-04-19T12:37:40.940Z,30.55
2019-04-19T12:40:11.033Z,30.15
2019-04-19T12:42:40.522Z,30.59
2019-04-19T12:45:13.448Z,30.16
2019-04-19T12:47:43.186Z,29.84
2019-04-19T12:50:16.241Z,29.98
2019-04-19T12:52:46.344Z,30.92
2019-04-19T12:55:15.945Z,30.74
2019-04-19T12:57:48.275Z,30.59
2019-04-19T13:00:21.153Z,30.68
2019-04-19T13:02:55.931Z,30.69
2019-04-19T13:05:37.464Z,30.60
2019-04-19T13:08:07.452Z,30.46
2019-04-19T13:10:37.027Z,30.50
2019-04-19T13:13:07.667Z,30.11
2019-04-19T13:15:38.435Z,29.91
2019-04-19T13:18:08.193Z,30.67
2019-04-19T13:20:39.164Z,31.28
2019-04-19T13:23:10.373Z,30.85
2019-04-19T13:25:39.957Z,31.00
2019-04-19T13:28:09.443Z,30.56
2019-04-19T13:30:47.026Z,30.85
2019-04-19T13:33:10.409Z,31.11
2019-04-19T13:35:41.817Z,30.81
2019-04-19T13:38:25.894Z,31.01
2019-04-19T13:41:12.874Z,31.07
2019-04-19T13:43:42.785Z,31.31
2019-04-19T13:46:12.804Z,31.38
2019-04-19T13:48:43.017Z,30.94
2019-04-19T13:51:12.586Z,31.10
2019-04-19T13:53:42.627Z,31.38
2019-04-19T13:56:12.899Z,31.31
2019-04-19T13:58:43.415Z,31.27
2019-04-19T14:01:12.908Z,31.18
2019-04-19T14:03:43.538Z,30.94
2019-04-19T14:06:13.111Z,30.98
2019-04-19T14:08:42.928Z,31.39
2019-04-19T14:11:13.136Z,31.63
2019-04-19T14:13:48.415Z,31.68
2019-04-19T14:16:14.633Z,31.81
2019-04-19T14:18:44.669Z,31.78
2019-04-19T14:21:14.891Z,31.73
2019-04-19T14:23:45.655Z,32.29
2019-04-19T14:26:27.877Z,31.83
2019-04-19T14:28:47.385Z,31.91
2019-04-19T14:31:17.056Z,31.71
2019-04-19T14:33:47.015Z,31.70
2019-04-19T14:36:17.744Z,32.00
2019-04-19T14:38:48.197Z,31.34
2019-04-19T14:41:18.078Z,31.20
2019-04-19T14:43:48.203Z,32.43
2019-04-19T14:46:18.599Z,31.76
2019-04-19T14:48:49.158Z,32.05
2019-04-19T14:51:25.805Z,32.04
2019-04-19T14:53:51.555Z,32.29
2019-04-19T14:56:21.736Z,31.62
2019-04-19T14:58:51.429Z,31.85
2019-04-19T15:01:21.306Z,30.87
2019-04-19T15:03:53.054Z,30.45
2019-04-19T15:06:23.961Z,30.98
2019-04-19T15:08:53.894Z,31.67
2019-04-19T15:11:23.583Z,31.27
2019-04-19T15:13:54.549Z,30.99
2019-04-19T15:16:24.376Z,31.42
2019-04-19T15:18:54.028Z,31.20
2019-04-19T15:21:23.781Z,30.58
2019-04-19T15:23:54.427Z,30.65
2019-04-19T15:26:24.898Z,30.75
2019-04-19T15:28:55.184Z,30.86
2019-04-19T15:31:26.252Z,30.36
2019-04-19T15:33:56.678Z,28.93
2019-04-19T15:36:26.338Z,29.66
2019-04-19T15:38:55.939Z,30.28
2019-04-19T15:41:26.192Z,29.81
2019-04-19T15:43:56.611Z,29.39
2019-04-19T15:46:26.223Z,29.64
2019-04-19T15:48:58.142Z,29.30
2019-04-19T15:51:32.499Z,29.45
2019-04-19T15:53:58.768Z,29.30
2019-04-19T15:56:28.321Z,29.93
2019-04-19T15:58:58.856Z,29.79
2019-04-19T16:01:46.268Z,29.73
2019-04-19T16:04:28.449Z,29.68
2019-04-19T16:06:58.999Z,29.82
2019-04-19T16:09:31.255Z,29.76
2019-04-19T16:12:02.979Z,29.00
2019-04-19T16:14:32.697Z,29.07
2019-04-19T16:17:03.145Z,28.66
2019-04-19T16:19:32.694Z,27.94
2019-04-19T16:22:04.000Z,27.71
2019-04-19T16:24:33.593Z,28.01
2019-04-19T16:27:03.128Z,27.58
2019-04-19T16:29:40.686Z,26.97
2019-04-19T16:32:04.925Z,26.79
2019-04-19T16:34:35.436Z,26.58
2019-04-19T16:37:06.206Z,26.14
2019-04-19T16:39:35.914Z,25.93
2019-04-19T16:42:07.004Z,25.89
2019-04-19T16:44:38.070Z,25.77
2019-04-19T16:47:09.038Z,25.54
2019-04-19T16:49:38.689Z,25.45
2019-04-19T16:52:08.866Z,25.49
2019-04-19T16:54:38.483Z,25.36
2019-04-19T16:57:16.814Z,25.21
2019-04-19T16:59:39.744Z,25.23
2019-04-19T17:02:09.311Z,25.13
2019-04-19T17:04:38.839Z,25.04
2019-04-19T17:07:08.792Z,24.80
2019-04-19T17:09:38.422Z,24.76
2019-04-19T17:12:08.085Z,24.73
2019-04-19T17:14:38.876Z,24.61
2019-04-19T17:17:10.823Z,24.58
2019-04-19T17:19:42.658Z,24.44
2019-04-19T17:22:18.342Z,24.35
2019-04-19T17:24:43.465Z,24.28
2019-04-19T17:27:13.245Z,24.43
2019-04-19T17:29:43.257Z,24.43
2019-04-19T17:32:14.179Z,24.58
2019-04-19T17:34:44.571Z,24.42
2019-04-19T17:37:14.217Z,24.26
2019-04-19T17:39:44.668Z,24.18
2019-04-19T17:42:14.741Z,24.11
2019-04-19T17:44:44.304Z,24.02
2019-04-19T17:47:17.041Z,23.99
2019-04-19T17:49:47.034Z,23.93
2019-04-19T17:52:24.602Z,23.89
2019-04-19T17:55:01.374Z,24.02
2019-04-19T17:57:20.927Z,23.91
2019-04-19T17:59:50.494Z,23.86
2019-04-19T18:02:21.275Z,23.72
2019-04-19T18:04:53.793Z,23.72
2019-04-19T18:07:25.878Z,23.69
2019-04-19T18:09:58.443Z,23.47
2019-04-19T18:12:25.380Z,23.38
2019-04-19T18:14:56.528Z,23.36
2019-04-19T18:17:26.883Z,23.22
2019-04-19T18:20:00.017Z,23.04
2019-04-19T18:22:38.836Z,22.85
2019-04-19T18:25:02.076Z,22.41
2019-04-19T18:27:31.588Z,22.10
2019-04-19T18:30:04.938Z,21.81
2019-04-19T18:32:45.175Z,21.68
2019-04-19T18:35:21.206Z,21.34
2019-04-19T18:37:47.346Z,21.06
2019-04-19T18:40:17.722Z,20.85
2019-04-19T18:43:06.041Z,20.64
2019-04-19T18:45:24.794Z,20.39
2019-04-19T18:47:50.735Z,20.23
2019-04-19T18:50:20.675Z,20.03
2019-04-19T18:53:01.588Z,19.67
2019-04-19T18:55:30.566Z,19.40
2019-04-19T18:57:54.128Z,19.19
2019-04-19T19:00:26.938Z,19.06
2019-04-19T19:02:58.821Z,18.93
2019-04-19T19:05:27.946Z,18.71
2019-04-19T19:08:01.930Z,18.58
2019-04-19T19:10:37.620Z,18.45
2019-04-19T19:13:00.613Z,18.35
2019-04-19T19:15:38.572Z,18.18
2019-04-19T19:18:02.948Z,17.97
2019-04-19T19:20:41.625Z,17.75
2019-04-19T19:23:19.950Z,17.55
2019-04-19T19:25:51.002Z,17.36
2019-04-19T19:28:18.048Z,17.17
2019-04-19T19:30:46.981Z,16.97
2019-04-19T19:33:20.506Z,16.79
2019-04-19T19:35:52.925Z,16.60
2019-04-19T19:38:25.624Z,16.42
2019-04-19T19:41:05.886Z,16.32
2019-04-19T19:43:38.192Z,16.15
2019-04-19T19:46:19.271Z,16.05
2019-04-19T19:48:56.259Z,15.89
2019-04-19T19:51:25.196Z,15.82
2019-04-19T19:53:55.307Z,15.69
2019-04-19T19:58:38.289Z,15.57
2019-04-19T20:01:17.286Z,15.71
2019-04-19T20:03:38.659Z,15.84
2019-04-19T20:06:10.855Z,15.85
2019-04-19T20:08:41.080Z,15.85
2019-04-19T20:11:12.521Z,15.56
2019-04-19T20:13:45.004Z,15.39
2019-04-19T20:16:19.886Z,15.21
2019-04-19T20:18:45.774Z,15.04
2019-04-19T20:21:16.693Z,15.09
2019-04-19T20:23:58.967Z,15.10
2019-04-19T20:26:24.170Z,15.01
2019-04-19T20:28:47.744Z,14.89
2019-04-19T20:31:27.630Z,14.80
2019-04-19T20:33:54.961Z,14.64
2019-04-19T20:36:21.044Z,14.54
2019-04-19T20:38:54.191Z,14.47
2019-04-19T20:41:22.710Z,14.42
2019-04-19T20:44:03.914Z,14.25
2019-04-19T20:46:26.492Z,14.21
2019-04-19T20:49:00.129Z,14.17
2019-04-19T20:51:45.197Z,14.19
2019-04-19T20:54:31.091Z,14.13
2019-04-19T20:57:06.238Z,14.01
2019-04-19T20:59:13.471Z,13.90
2019-04-19T21:01:43.154Z,13.78
2019-04-19T21:04:15.888Z,13.88
2019-04-19T21:06:44.833Z,13.82
2019-04-19T21:09:21.608Z,13.99
2019-04-19T21:11:48.134Z,13.99
2019-04-19T21:14:17.040Z,13.91
2019-04-19T21:16:52.679Z,13.94
2019-04-19T21:19:18.280Z,13.90
2019-04-19T21:21:51.968Z,13.94
2019-04-19T21:24:20.410Z,13.97
2019-04-19T21:26:51.201Z,14.08
2019-04-19T21:29:25.254Z,14.16
2019-04-19T21:31:54.861Z,14.15
2019-04-19T21:34:27.285Z,14.33
2019-04-19T21:36:58.548Z,14.33
2019-04-19T21:39:30.103Z,14.47
2019-04-19T21:42:01.670Z,14.40
2019-04-19T21:44:28.629Z,14.30
2019-04-19T21:46:59.512Z,14.24
2019-04-19T21:49:30.811Z,14.22
2019-04-19T21:52:05.504Z,14.14
2019-04-19T21:54:32.672Z,14.07
2019-04-19T21:57:02.764Z,13.93
2019-04-19T21:59:35.947Z,13.77
2019-04-19T22:02:03.690Z,13.71
2019-04-19T22:04:42.811Z,13.59
2019-04-19T22:07:07.564Z,13.44
2019-04-19T22:09:36.622Z,13.29
2019-04-19T22:12:06.320Z,13.15
2019-04-19T22:14:36.197Z,13.05
2019-04-19T22:17:13.035Z,12.98
2019-04-19T22:19:38.583Z,12.94
2019-04-19T22:22:15.379Z,12.93
2019-04-19T22:24:41.478Z,12.91
2019-04-19T22:27:11.723Z,12.80
2019-04-19T22:29:41.820Z,12.71
2019-04-19T22:32:15.254Z,12.61
2019-04-19T22:34:42.625Z,12.61
2019-04-19T22:37:16.105Z,12.66
2019-04-19T22:39:43.552Z,12.65
2019-04-19T22:42:13.094Z,12.50
2019-04-19T22:44:42.908Z,12.46
2019-04-19T22:47:12.483Z,12.39
2019-04-19T22:49:44.448Z,12.35
2019-04-19T22:52:14.292Z,12.29
2019-04-19T22:54:44.590Z,12.25
2019-04-19T22:57:18.861Z,12.18
2019-04-19T22:59:52.962Z,12.16
2019-04-19T23:02:18.683Z,12.09
2019-04-19T23:04:53.969Z,12.06
2019-04-19T23:07:20.625Z,12.00
2019-04-19T23:09:50.788Z,11.94
2019-04-19T23:12:20.683Z,11.92
2019-04-19T23:14:52.415Z,11.88
2019-04-19T23:17:28.468Z,11.83
2019-04-19T23:19:53.577Z,11.79
2019-04-19T23:22:30.956Z,11.74
2019-04-19T23:25:00.255Z,11.66
2019-04-19T23:27:38.206Z,11.59
2019-04-19T23:30:19.934Z,11.57
2019-04-19T23:32:46.055Z,11.49
2019-04-19T23:35:16.392Z,11.48
2019-04-19T23:37:49.295Z,11.49
2019-04-19T23:40:23.705Z,11.43
2019-04-19T23:42:52.072Z,11.46
2019-04-19T23:45:26.541Z,11.40
2019-04-19T23:47:54.088Z,11.35
2019-04-19T23:50:27.927Z,11.31
2019-04-19T23:52:58.812Z,11.20
2019-04-19T23:55:26.446Z,11.13
2019-04-19T23:57:57.734Z,11.13
